createdAt,value
2022-09-13T00:01:18.115Z,21.37
2022-09-13T00:03:45.959Z,21.74
2022-09-13T00:06:21.858Z,20.88
2022-09-13T00:08:50.130Z,19.86
2022-09-13T00:11:23.094Z,19.69
2022-09-13T00:13:54.046Z,21.34
2022-09-13T00:16:25.963Z,22.56
2022-09-13T00:18:55.121Z,22.81
2022-09-13T00:21:24.735Z,21.64
2022-09-13T00:23:54.900Z,20.36
2022-09-13T00:26:27.238Z,20.74
2022-09-13T00:28:58.807Z,22.15
2022-09-13T00:31:29.013Z,22.43
2022-09-13T00:34:01.913Z,21.36
2022-09-13T00:36:30.125Z,20.20
2022-09-13T00:39:00.595Z,19.84
2022-09-13T00:41:32.061Z,21.39
2022-09-13T00:44:02.600Z,22.50
2022-09-13T00:46:44.814Z,22.71
2022-09-13T00:49:34.535Z,21.51
2022-09-13T00:52:10.419Z,20.17
2022-09-13T00:54:51.270Z,19.98
2022-09-13T00:57:22.259Z,21.59
2022-09-13T01:00:14.339Z,22.31
2022-09-13T01:02:49.381Z,21.14
2022-09-13T01:05:22.084Z,19.93
2022-09-13T01:07:51.526Z,19.68
2022-09-13T01:10:19.586Z,21.18
2022-09-13T01:13:15.092Z,22.25
2022-09-13T01:15:43.989Z,22.12
2022-09-13T01:18:12.406Z,20.73
2022-09-13T01:21:34.465Z,19.54
2022-09-13T01:24:07.985Z,19.76
2022-09-13T01:27:28.508Z,21.33
2022-09-13T01:30:21.556Z,22.27
2022-09-13T01:32:58.281Z,21.40
2022-09-13T01:36:01.108Z,20.00
2022-09-13T01:38:59.919Z,19.73
2022-09-13T01:41:35.215Z,21.43
2022-09-13T01:44:30.636Z,22.00
2022-09-13T01:47:37.134Z,20.71
2022-09-13T01:50:22.998Z,19.29
2022-09-13T01:52:57.039Z,19.68
2022-09-13T01:56:10.894Z,21.26
2022-09-13T01:59:12.080Z,21.68
2022-09-13T02:01:50.436Z,20.19
2022-09-13T02:04:30.742Z,19.07
2022-09-13T02:07:13.701Z,19.03
2022-09-13T02:09:49.107Z,20.76
2022-09-13T02:12:23.816Z,21.62
2022-09-13T02:15:03.180Z,21.09
2022-09-13T02:17:42.346Z,19.78
2022-09-13T02:20:23.817Z,19.64
2022-09-13T02:22:58.838Z,21.09
2022-09-13T02:25:29.062Z,21.52
2022-09-13T02:28:03.758Z,20.40
2022-09-13T02:30:34.724Z,19.20
2022-09-13T02:33:32.424Z,20.02
2022-09-13T02:36:08.046Z,20.73
2022-09-13T02:38:52.050Z,19.98
2022-09-13T02:41:28.515Z,18.95
2022-09-13T02:44:10.286Z,19.95
2022-09-13T02:47:25.970Z,20.67
2022-09-13T02:50:23.846Z,20.39
2022-09-13T02:52:57.252Z,19.14
2022-09-13T02:55:43.751Z,18.81
2022-09-13T02:58:23.668Z,20.36
2022-09-13T03:00:56.107Z,21.14
2022-09-13T03:03:24.688Z,20.31
2022-09-13T03:05:54.218Z,19.09
2022-09-13T03:08:23.591Z,19.44
2022-09-13T03:11:06.050Z,20.95
2022-09-13T03:14:20.636Z,21.88
2022-09-13T03:17:25.779Z,20.87
2022-09-13T03:20:42.113Z,19.45
2022-09-13T03:23:53.243Z,19.33
2022-09-13T03:26:46.849Z,21.16
2022-09-13T03:29:29.737Z,21.23
2022-09-13T03:32:06.312Z,20.04
2022-09-13T03:34:52.708Z,19.06
2022-09-13T03:37:45.301Z,20.18
2022-09-13T03:40:21.394Z,21.55
2022-09-13T03:43:37.252Z,21.83
2022-09-13T03:46:24.778Z,20.15
2022-09-13T03:48:54.302Z,19.64
2022-09-13T03:51:23.537Z,20.97
2022-09-13T03:54:01.372Z,21.54
2022-09-13T03:56:29.439Z,20.52
2022-09-13T03:58:57.380Z,19.36
2022-09-13T04:01:25.908Z,19.05
2022-09-13T04:03:56.845Z,20.47
2022-09-13T04:06:25.488Z,21.48
2022-09-13T04:08:53.184Z,21.58
2022-09-13T04:11:21.655Z,20.57
2022-09-13T04:13:49.594Z,19.42
2022-09-13T04:16:17.995Z,19.06
2022-09-13T04:18:45.798Z,20.42
2022-09-13T04:21:13.546Z,21.41
2022-09-13T04:23:41.205Z,21.88
2022-09-13T04:26:10.694Z,21.64
2022-09-13T04:28:38.382Z,20.43
2022-09-13T04:31:06.143Z,19.40
2022-09-13T04:33:33.833Z,19.08
2022-09-13T04:36:02.561Z,20.27
2022-09-13T04:38:32.112Z,21.13
2022-09-13T04:40:59.830Z,21.51
2022-09-13T04:43:27.527Z,21.56
2022-09-13T04:45:55.351Z,20.48
2022-09-13T04:48:23.092Z,19.31
2022-09-13T04:50:50.777Z,18.83
2022-09-13T04:53:18.813Z,20.08
2022-09-13T04:55:47.225Z,21.45
2022-09-13T04:58:14.857Z,21.85
2022-09-13T05:00:42.593Z,20.71
2022-09-13T05:03:10.598Z,19.49
2022-09-13T05:05:38.264Z,18.95
2022-09-13T05:08:05.985Z,20.00
2022-09-13T05:10:33.612Z,20.86
2022-09-13T05:13:01.404Z,20.88
2022-09-13T05:15:29.101Z,19.73
2022-09-13T05:17:56.775Z,18.95
2022-09-13T05:20:24.454Z,19.66
2022-09-13T05:22:52.233Z,20.17
2022-09-13T05:25:24.135Z,20.07
2022-09-13T05:27:53.763Z,18.95
2022-09-13T05:30:21.525Z,18.13
2022-09-13T05:32:49.281Z,18.75
2022-09-13T05:35:17.148Z,19.59
2022-09-13T05:37:45.245Z,20.27
2022-09-13T05:40:13.178Z,20.53
2022-09-13T05:42:41.358Z,19.53
2022-09-13T05:45:09.821Z,18.40
2022-09-13T05:47:38.109Z,17.95
2022-09-13T05:50:13.514Z,19.06
2022-09-13T05:52:57.441Z,20.21
2022-09-13T05:55:25.511Z,20.30
2022-09-13T05:57:53.154Z,19.08
2022-09-13T06:00:20.929Z,18.03
2022-09-13T06:02:49.557Z,17.38
2022-09-13T06:05:17.408Z,18.39
2022-09-13T06:07:45.060Z,19.48
2022-09-13T06:10:12.897Z,19.44
2022-09-13T06:12:41.276Z,18.39
2022-09-13T06:15:09.981Z,17.37
2022-09-13T06:17:37.909Z,17.63
2022-09-13T06:20:06.490Z,18.98
2022-09-13T06:22:35.410Z,19.37
2022-09-13T06:25:03.739Z,18.53
2022-09-13T06:27:31.738Z,17.45
2022-09-13T06:29:59.481Z,16.95
2022-09-13T06:32:28.393Z,18.17
2022-09-13T06:34:56.254Z,19.41
2022-09-13T06:37:24.436Z,19.78
2022-09-13T06:39:52.224Z,18.73
2022-09-13T06:42:19.948Z,17.60
2022-09-13T06:44:48.552Z,16.86
2022-09-13T06:47:16.432Z,16.76
2022-09-13T06:49:44.307Z,18.21
2022-09-13T06:52:12.243Z,19.52
2022-09-13T06:54:39.932Z,19.52
2022-09-13T06:57:07.693Z,18.33
2022-09-13T06:59:35.557Z,17.33
2022-09-13T07:02:03.923Z,16.98
2022-09-13T07:04:31.685Z,18.17
2022-09-13T07:06:59.976Z,18.75
2022-09-13T07:09:27.928Z,18.10
2022-09-13T07:11:57.345Z,17.18
2022-09-13T07:14:28.835Z,16.45
2022-09-13T07:16:57.097Z,16.69
2022-09-13T07:19:27.948Z,18.09
2022-09-13T07:21:58.069Z,18.82
2022-09-13T07:24:27.219Z,18.10
2022-09-13T07:26:55.015Z,16.97
2022-09-13T07:29:24.294Z,16.17
2022-09-13T07:31:55.078Z,16.13
2022-09-13T07:34:25.838Z,17.52
2022-09-13T07:36:54.729Z,18.30
2022-09-13T07:39:23.471Z,17.54
2022-09-13T07:41:54.022Z,16.73
2022-09-13T07:44:22.915Z,16.50
2022-09-13T07:46:51.180Z,17.89
2022-09-13T07:49:19.974Z,19.22
2022-09-13T07:51:51.564Z,19.69
2022-09-13T07:54:20.634Z,18.66
2022-09-13T07:56:50.514Z,17.63
2022-09-13T07:59:19.647Z,16.92
2022-09-13T08:01:50.555Z,16.81
2022-09-13T08:04:23.867Z,18.24
2022-09-13T08:06:51.629Z,19.58
2022-09-13T08:09:19.708Z,20.05
2022-09-13T08:11:52.995Z,19.18
2022-09-13T08:14:23.281Z,18.13
2022-09-13T08:16:57.096Z,17.39
2022-09-13T08:19:25.045Z,17.21
2022-09-13T08:21:53.143Z,18.51
2022-09-13T08:24:22.788Z,19.68
2022-09-13T08:26:52.205Z,20.13
2022-09-13T08:29:20.311Z,19.18
2022-09-13T08:31:49.414Z,18.08
2022-09-13T08:34:18.280Z,17.27
2022-09-13T08:36:46.210Z,17.06
2022-09-13T08:39:14.714Z,18.30
2022-09-13T08:41:44.388Z,19.45
2022-09-13T08:44:14.967Z,19.94
2022-09-13T08:46:46.676Z,19.01
2022-09-13T08:49:28.924Z,17.83
2022-09-13T08:52:03.099Z,17.47
2022-09-13T08:54:31.084Z,18.64
2022-09-13T08:57:14.096Z,19.50
2022-09-13T09:00:05.736Z,18.81
2022-09-13T09:02:51.718Z,17.62
2022-09-13T09:05:25.344Z,17.29
2022-09-13T09:08:12.194Z,18.43
2022-09-13T09:10:49.038Z,18.84
2022-09-13T09:13:59.583Z,17.86
2022-09-13T09:16:36.685Z,17.00
2022-09-13T09:19:17.092Z,17.86
2022-09-13T09:21:49.424Z,18.73
2022-09-13T09:24:25.639Z,18.71
2022-09-13T09:26:57.684Z,17.54
2022-09-13T09:29:32.696Z,16.64
2022-09-13T09:32:50.662Z,16.86
2022-09-13T09:35:50.566Z,18.49
2022-09-13T09:38:31.531Z,19.40
2022-09-13T09:41:13.081Z,18.53
2022-09-13T09:44:19.256Z,17.37
2022-09-13T09:47:03.323Z,16.61
2022-09-13T09:50:12.310Z,17.58
2022-09-13T09:52:56.985Z,18.45
2022-09-13T09:55:41.301Z,17.50
2022-09-13T09:58:10.117Z,16.88
2022-09-13T10:00:59.156Z,17.51
2022-09-13T10:03:33.882Z,17.84
2022-09-13T10:06:30.109Z,17.06
2022-09-13T10:09:06.382Z,16.94
2022-09-13T10:11:53.068Z,17.53
2022-09-13T10:14:43.124Z,17.00
2022-09-13T10:17:25.316Z,16.20
2022-09-13T10:20:01.399Z,16.74
2022-09-13T10:22:32.943Z,17.53
2022-09-13T10:25:22.677Z,17.63
2022-09-13T10:27:57.881Z,16.71
2022-09-13T10:30:31.264Z,16.49
2022-09-13T10:33:00.145Z,17.86
2022-09-13T10:35:29.739Z,18.01
2022-09-13T10:37:57.685Z,17.16
2022-09-13T10:40:38.717Z,16.48
2022-09-13T10:43:19.553Z,17.21
2022-09-13T10:45:51.625Z,18.69
2022-09-13T10:48:20.952Z,18.34
2022-09-13T10:51:21.487Z,16.96
2022-09-13T10:53:49.203Z,16.91
2022-09-13T10:56:26.770Z,18.08
2022-09-13T10:59:30.734Z,18.11
2022-09-13T11:02:33.804Z,17.16
2022-09-13T11:05:38.040Z,16.99
2022-09-13T11:08:36.553Z,17.81
2022-09-13T11:11:24.169Z,17.42
2022-09-13T11:14:11.151Z,16.57
2022-09-13T11:17:03.928Z,16.82
2022-09-13T11:19:46.792Z,18.00
2022-09-13T11:22:37.376Z,17.81
2022-09-13T11:25:49.177Z,17.09
2022-09-13T11:28:19.717Z,17.35
2022-09-13T11:31:28.843Z,18.20
2022-09-13T11:34:19.258Z,17.95
2022-09-13T11:37:21.795Z,17.31
2022-09-13T11:40:01.483Z,16.64
2022-09-13T11:43:04.551Z,17.66
2022-09-13T11:45:41.183Z,18.55
2022-09-13T11:48:20.780Z,17.81
2022-09-13T11:51:27.110Z,17.01
2022-09-13T11:54:20.555Z,17.26
2022-09-13T11:56:59.854Z,18.19
2022-09-13T11:59:52.620Z,18.01
2022-09-13T12:02:44.765Z,17.23
2022-09-13T12:05:24.220Z,17.12
2022-09-13T12:08:19.679Z,18.45
2022-09-13T12:11:14.048Z,18.80
2022-09-13T12:13:57.302Z,17.84
2022-09-13T12:16:44.238Z,17.25
2022-09-13T12:19:19.402Z,16.80
2022-09-13T12:21:51.362Z,16.88
2022-09-13T12:24:54.248Z,18.17
2022-09-13T12:27:48.413Z,19.22
2022-09-13T12:30:28.779Z,18.39
2022-09-13T12:32:58.966Z,17.59
2022-09-13T12:35:41.748Z,17.00
2022-09-13T12:38:35.826Z,17.06
2022-09-13T12:41:30.161Z,18.75
2022-09-13T12:44:10.218Z,19.62
2022-09-13T12:47:25.217Z,18.62
2022-09-13T12:50:44.261Z,17.60
2022-09-13T12:53:43.966Z,16.93
2022-09-13T12:57:13.822Z,17.20
2022-09-13T13:00:08.904Z,19.31
2022-09-13T13:02:42.177Z,19.05
2022-09-13T13:05:42.110Z,18.21
2022-09-13T13:08:22.291Z,17.54
2022-09-13T13:11:11.837Z,17.32
2022-09-13T13:14:09.684Z,18.94
2022-09-13T13:16:48.314Z,19.01
2022-09-13T13:19:37.011Z,18.06
2022-09-13T13:22:42.891Z,17.26
2022-09-13T13:26:07.608Z,17.37
2022-09-13T13:28:53.207Z,18.96
2022-09-13T13:31:30.009Z,18.79
2022-09-13T13:34:06.781Z,17.91
2022-09-13T13:36:40.312Z,17.36
2022-09-13T13:39:23.209Z,18.37
2022-09-13T13:41:56.557Z,19.94
2022-09-13T13:44:24.121Z,20.48
2022-09-13T13:47:14.777Z,19.66
2022-09-13T13:50:04.347Z,18.75
2022-09-13T13:52:47.264Z,18.22
2022-09-13T13:55:49.380Z,17.92
2022-09-13T13:59:02.142Z,17.98
2022-09-13T14:01:36.380Z,20.02
2022-09-13T14:04:47.414Z,20.85
2022-09-13T14:08:06.639Z,19.69
2022-09-13T14:11:06.525Z,18.51
2022-09-13T14:13:54.390Z,17.89
2022-09-13T14:16:57.386Z,17.47
2022-09-13T14:19:29.400Z,17.20
2022-09-13T14:22:26.790Z,18.22
2022-09-13T14:25:13.966Z,19.56
2022-09-13T14:27:44.133Z,19.01
2022-09-13T14:30:22.122Z,18.41
2022-09-13T14:32:58.531Z,17.96
2022-09-13T14:35:37.311Z,17.67
2022-09-13T14:38:23.677Z,17.53
2022-09-13T14:40:54.498Z,18.71
2022-09-13T14:43:29.668Z,19.96
2022-09-13T14:46:07.362Z,19.40
2022-09-13T14:48:44.146Z,18.69
2022-09-13T14:51:37.649Z,18.21
2022-09-13T14:54:30.252Z,17.80
2022-09-13T14:57:05.522Z,17.50
2022-09-13T14:59:48.075Z,18.49
2022-09-13T15:02:25.245Z,19.78
2022-09-13T15:05:00.722Z,19.29
2022-09-13T15:07:34.171Z,18.55
2022-09-13T15:10:13.020Z,18.08
2022-09-13T15:13:02.793Z,17.81
2022-09-13T15:15:45.412Z,17.56
2022-09-13T15:18:23.952Z,18.43
2022-09-13T15:21:17.188Z,20.41
2022-09-13T15:23:51.929Z,20.84
2022-09-13T15:26:25.568Z,19.99
2022-09-13T15:29:04.553Z,19.34
2022-09-13T15:31:39.161Z,18.75
2022-09-13T15:34:24.006Z,18.32
2022-09-13T15:37:01.630Z,17.99
2022-09-13T15:39:29.613Z,17.75
2022-09-13T15:42:00.506Z,18.04
2022-09-13T15:44:30.340Z,19.82
2022-09-13T15:47:04.956Z,20.42
2022-09-13T15:49:34.122Z,19.46
2022-09-13T15:52:05.693Z,18.64
2022-09-13T15:54:42.221Z,18.29
2022-09-13T15:57:27.068Z,18.03
2022-09-13T16:00:02.640Z,17.81
2022-09-13T16:02:33.426Z,18.57
2022-09-13T16:05:01.666Z,20.28
2022-09-13T16:07:29.415Z,20.51
2022-09-13T16:09:57.103Z,19.69
2022-09-13T16:12:27.028Z,19.06
2022-09-13T16:14:54.810Z,18.57
2022-09-13T16:17:26.788Z,18.24
2022-09-13T16:19:55.730Z,17.94
2022-09-13T16:22:23.974Z,17.68
2022-09-13T16:24:52.496Z,17.47
2022-09-13T16:27:21.148Z,17.26
2022-09-13T16:29:48.866Z,17.07
2022-09-13T16:32:16.590Z,17.30
2022-09-13T16:34:45.155Z,18.72
2022-09-13T16:37:19.162Z,19.21
2022-09-13T16:39:47.567Z,18.55
2022-09-13T16:42:17.712Z,17.92
2022-09-13T16:44:45.749Z,17.54
2022-09-13T16:47:13.924Z,17.28
2022-09-13T16:49:42.071Z,17.49
2022-09-13T16:52:10.570Z,18.92
2022-09-13T16:54:38.373Z,19.31
2022-09-13T16:57:07.617Z,18.57
2022-09-13T16:59:35.321Z,17.99
2022-09-13T17:02:04.155Z,17.56
2022-09-13T17:04:32.589Z,17.27
2022-09-13T17:07:04.972Z,17.03
2022-09-13T17:09:35.039Z,16.95
2022-09-13T17:12:05.106Z,18.00
2022-09-13T17:14:33.818Z,19.06
2022-09-13T17:17:02.803Z,18.62
2022-09-13T17:19:36.026Z,17.99
2022-09-13T17:22:08.154Z,17.39
2022-09-13T17:24:37.362Z,17.01
2022-09-13T17:27:06.941Z,17.09
2022-09-13T17:29:36.080Z,18.49
2022-09-13T17:32:06.196Z,19.37
2022-09-13T17:34:34.772Z,18.76
2022-09-13T17:37:04.432Z,18.00
2022-09-13T17:39:33.125Z,17.47
2022-09-13T17:42:06.283Z,17.06
2022-09-13T17:44:39.755Z,17.19
2022-09-13T17:47:10.397Z,18.27
2022-09-13T17:49:38.568Z,18.66
2022-09-13T17:52:08.643Z,17.87
2022-09-13T17:54:40.481Z,17.24
2022-09-13T17:57:12.018Z,16.80
2022-09-13T17:59:39.824Z,16.92
2022-09-13T18:02:09.364Z,18.01
2022-09-13T18:04:37.405Z,18.37
2022-09-13T18:07:05.119Z,17.73
2022-09-13T18:09:33.214Z,17.02
2022-09-13T18:12:04.713Z,17.22
2022-09-13T18:14:33.022Z,18.24
2022-09-13T18:17:02.582Z,18.30
2022-09-13T18:19:46.008Z,17.41
2022-09-13T18:22:15.933Z,16.86
2022-09-13T18:24:44.107Z,17.79
2022-09-13T18:27:11.857Z,18.65
2022-09-13T18:29:39.581Z,17.97
2022-09-13T18:32:07.300Z,17.17
2022-09-13T18:34:35.061Z,16.67
2022-09-13T18:37:02.763Z,16.98
2022-09-13T18:39:30.867Z,18.21
2022-09-13T18:42:00.816Z,19.09
2022-09-13T18:44:33.730Z,18.43
2022-09-13T18:47:03.099Z,17.54
2022-09-13T18:49:31.181Z,16.91
2022-09-13T18:51:58.957Z,16.44
2022-09-13T18:54:26.617Z,16.44
2022-09-13T18:56:57.430Z,17.82
2022-09-13T18:59:27.909Z,18.74
2022-09-13T19:01:56.842Z,18.24
2022-09-13T19:04:25.142Z,17.42
2022-09-13T19:06:58.309Z,16.81
2022-09-13T19:09:26.403Z,16.34
2022-09-13T19:11:55.724Z,16.51
2022-09-13T19:14:28.634Z,17.91
2022-09-13T19:17:03.153Z,18.82
2022-09-13T19:19:35.992Z,18.00
2022-09-13T19:22:03.773Z,17.23
2022-09-13T19:24:31.466Z,16.65
2022-09-13T19:27:02.744Z,16.22
2022-09-13T19:29:32.766Z,16.27
2022-09-13T19:32:00.909Z,17.66
2022-09-13T19:34:28.646Z,18.96
2022-09-13T19:37:05.119Z,19.80
2022-09-13T19:39:32.933Z,20.03
2022-09-13T19:42:02.538Z,19.06
2022-09-13T19:44:31.013Z,18.04
2022-09-13T19:47:44.791Z,17.27
2022-09-13T19:49:50.392Z,16.59
2022-09-13T19:52:18.777Z,16.53
2022-09-13T19:54:46.708Z,17.86
2022-09-13T19:57:14.569Z,19.09
2022-09-13T19:59:42.797Z,19.78
2022-09-13T20:02:11.318Z,19.83
2022-09-13T20:04:40.158Z,18.81
2022-09-13T20:07:12.229Z,17.85
2022-09-13T20:09:42.358Z,17.14
2022-09-13T20:12:12.668Z,17.01
2022-09-13T20:14:40.396Z,18.41
2022-09-13T20:17:08.128Z,19.76
2022-09-13T20:19:42.523Z,20.23
2022-09-13T20:22:15.515Z,19.21
2022-09-13T20:24:44.946Z,18.15
2022-09-13T20:27:13.436Z,17.36
2022-09-13T20:29:41.609Z,17.10
2022-09-13T20:32:09.641Z,18.32
2022-09-13T20:34:39.209Z,19.55
2022-09-13T20:37:07.192Z,20.00
2022-09-13T20:39:35.677Z,19.09
2022-09-13T20:42:03.593Z,17.97
2022-09-13T20:44:31.347Z,17.01
2022-09-13T20:46:59.263Z,16.74
2022-09-13T20:49:29.274Z,18.08
2022-09-13T20:51:57.124Z,19.45
2022-09-13T20:54:25.010Z,19.74
2022-09-13T20:56:53.568Z,18.68
2022-09-13T20:59:22.692Z,17.53
2022-09-13T21:01:51.167Z,16.99
2022-09-13T21:04:19.120Z,17.99
2022-09-13T21:07:05.544Z,18.96
2022-09-13T21:09:33.311Z,19.56
2022-09-13T21:12:01.992Z,19.09
2022-09-13T21:14:32.398Z,17.88
2022-09-13T21:17:00.767Z,16.90
2022-09-13T21:19:29.397Z,16.50
2022-09-13T21:21:57.179Z,17.51
2022-09-13T21:24:25.127Z,18.40
2022-09-13T21:26:52.990Z,19.04
2022-09-13T21:29:20.690Z,19.22
2022-09-13T21:31:49.706Z,18.23
2022-09-13T21:34:19.381Z,17.11
2022-09-13T21:36:47.874Z,16.79
2022-09-13T21:39:16.786Z,17.84
2022-09-13T21:41:45.087Z,18.70
2022-09-13T21:44:13.010Z,19.28
2022-09-13T21:46:41.985Z,19.51
2022-09-13T21:49:13.084Z,18.50
2022-09-13T21:51:44.947Z,17.38
2022-09-13T21:54:19.105Z,16.59
2022-09-13T21:56:54.850Z,16.42
2022-09-13T21:59:24.588Z,17.86
2022-09-13T22:01:54.196Z,19.09
2022-09-13T22:04:27.622Z,19.42
2022-09-13T22:06:56.206Z,18.47
2022-09-13T22:09:27.189Z,17.43
2022-09-13T22:11:56.543Z,16.64
2022-09-13T22:14:24.869Z,17.10
2022-09-13T22:16:53.442Z,18.21
2022-09-13T22:19:26.735Z,18.96
2022-09-13T22:22:01.345Z,19.04
2022-09-13T22:24:36.555Z,18.01
2022-09-13T22:27:04.764Z,16.98
2022-09-13T22:29:32.454Z,16.24
2022-09-13T22:32:00.938Z,16.01
2022-09-13T22:34:31.043Z,17.17
2022-09-13T22:37:00.327Z,18.21
2022-09-13T22:39:28.318Z,18.83
2022-09-13T22:41:56.200Z,19.00
2022-09-13T22:44:23.933Z,18.05
2022-09-13T22:46:51.662Z,16.96
2022-09-13T22:49:20.572Z,16.12
2022-09-13T22:51:49.754Z,15.78
2022-09-13T22:54:19.654Z,16.87
2022-09-13T22:56:47.917Z,18.00
2022-09-13T22:59:20.997Z,18.75
2022-09-13T23:01:49.972Z,18.98
2022-09-13T23:04:17.948Z,17.91
2022-09-13T23:06:46.092Z,16.80
2022-09-13T23:09:20.255Z,16.00
2022-09-13T23:11:48.376Z,15.80
2022-09-13T23:14:20.124Z,16.92
2022-09-13T23:16:51.835Z,18.08
2022-09-13T23:19:23.205Z,18.81
2022-09-13T23:21:53.582Z,18.89
2022-09-13T23:24:22.074Z,17.81
2022-09-13T23:26:50.450Z,16.70
2022-09-13T23:29:20.360Z,16.14
2022-09-13T23:31:48.976Z,17.12
2022-09-13T23:34:17.798Z,18.00
2022-09-13T23:36:47.234Z,18.44
2022-09-13T23:39:19.194Z,18.46
2022-09-13T23:41:49.263Z,17.36
2022-09-13T23:44:19.626Z,16.22
2022-09-13T23:46:47.712Z,15.74
2022-09-13T23:49:15.948Z,16.74
2022-09-13T23:51:43.775Z,17.75
2022-09-13T23:54:13.901Z,18.30
2022-09-13T23:56:42.042Z,18.01
2022-09-13T23:59:13.413Z,16.86
